createdAt,value
2022-10-31T00:20:05.999Z,7.10
2022-10-31T00:25:09.573Z,7.20
2022-10-31T00:30:11.684Z,7.30
2022-10-31T00:35:13.577Z,7.40
2022-10-31T00:40:17.051Z,7.30
2022-10-31T00:57:03.214Z,7.30
2022-10-31T01:02:06.490Z,7.30
2022-10-31T01:07:08.515Z,7.20
2022-10-31T01:12:43.258Z,7.00
2022-10-31T01:17:46.619Z,7.00
2022-10-31T01:22:48.325Z,7.00
2022-10-31T01:27:50.023Z,7.10
2022-10-31T01:32:53.207Z,7.00
2022-10-31T01:37:55.246Z,7.10
2022-10-31T01:42:57.255Z,7.00
2022-10-31T01:48:00.775Z,7.00
2022-10-31T01:53:03.399Z,6.90
2022-10-31T01:58:08.334Z,6.90
2022-10-31T02:03:11.635Z,6.90
2022-10-31T02:08:17.826Z,6.80
2022-10-31T02:13:20.875Z,6.90
2022-10-31T02:18:27.020Z,6.80
2022-10-31T02:24:16.143Z,6.80
2022-10-31T02:29:43.599Z,6.90
2022-10-31T02:34:54.466Z,7.00
2022-10-31T02:40:10.085Z,7.10
2022-10-31T02:45:17.613Z,7.10
2022-10-31T02:50:24.585Z,6.90
2022-10-31T02:55:55.714Z,6.90
2022-10-31T03:01:25.531Z,6.90
2022-10-31T03:06:45.566Z,7.00
2022-10-31T03:12:04.081Z,7.00
2022-10-31T03:17:09.410Z,7.00
2022-10-31T03:22:20.500Z,7.00
2022-10-31T03:27:25.270Z,7.10
2022-10-31T03:32:32.219Z,7.20
2022-10-31T03:37:37.560Z,7.20
2022-10-31T03:42:42.214Z,7.30
2022-10-31T03:47:45.124Z,7.40
2022-10-31T03:52:54.286Z,7.50
2022-10-31T03:58:01.205Z,7.50
2022-10-31T04:03:10.807Z,7.60
2022-10-31T04:08:18.166Z,7.60
2022-10-31T04:13:24.943Z,7.50
2022-10-31T04:18:27.108Z,7.50
2022-10-31T04:23:30.851Z,7.50
2022-10-31T04:28:32.559Z,7.40
2022-10-31T04:33:34.283Z,7.50
2022-10-31T04:38:37.453Z,7.40
2022-10-31T04:43:39.160Z,7.20
2022-10-31T04:48:40.879Z,7.20
2022-10-31T04:53:44.077Z,7.20
2022-10-31T04:58:45.859Z,7.10
2022-10-31T05:03:47.740Z,7.10
2022-10-31T05:08:50.875Z,7.10
2022-10-31T05:13:52.606Z,7.10
2022-10-31T05:18:54.371Z,7.10
2022-10-31T05:23:57.441Z,7.00
2022-10-31T05:28:59.286Z,7.00
2022-10-31T05:34:00.974Z,7.00
2022-10-31T05:39:04.202Z,7.00
2022-10-31T05:44:06.347Z,7.00
2022-10-31T05:49:08.065Z,7.00
2022-10-31T05:54:15.723Z,7.00
2022-10-31T06:09:45.789Z,7.20
2022-10-31T06:14:47.674Z,7.30
2022-10-31T06:24:53.603Z,7.30
2022-10-31T06:29:55.363Z,7.20
2022-10-31T06:34:57.337Z,7.20
2022-10-31T06:40:00.832Z,7.30
2022-10-31T06:45:02.609Z,7.40
2022-10-31T06:50:05.098Z,7.50
2022-10-31T06:55:08.648Z,7.50
2022-10-31T07:00:11.582Z,7.70
2022-10-31T07:05:13.399Z,7.80
2022-10-31T07:10:16.713Z,8.00
2022-10-31T07:15:18.450Z,8.20
2022-10-31T07:20:20.356Z,8.30
2022-10-31T07:25:23.929Z,8.40
2022-10-31T07:30:25.801Z,8.60
2022-10-31T07:35:28.988Z,8.70
2022-10-31T07:40:32.186Z,8.90
2022-10-31T07:45:34.013Z,9.10
2022-10-31T07:50:35.900Z,9.30
2022-10-31T07:55:39.833Z,9.60
2022-10-31T08:00:49.897Z,10.00
2022-10-31T08:05:51.776Z,10.20
2022-10-31T08:10:58.845Z,10.30
2022-10-31T08:16:02.011Z,10.50
2022-10-31T08:21:09.851Z,10.60
2022-10-31T08:26:16.527Z,10.70
2022-10-31T08:31:33.901Z,10.70
2022-10-31T08:37:05.984Z,10.70
2022-10-31T08:42:21.074Z,10.80
2022-10-31T08:47:22.863Z,10.80
2022-10-31T08:52:38.583Z,10.80
2022-10-31T08:57:48.249Z,10.90
2022-10-31T09:02:58.295Z,10.90
2022-10-31T09:14:12.726Z,11.10
2022-10-31T09:19:14.447Z,11.30
2022-10-31T09:24:16.262Z,11.40
2022-10-31T09:29:19.401Z,11.60
2022-10-31T09:34:21.184Z,11.70
2022-10-31T09:39:26.094Z,11.90
2022-10-31T09:45:10.044Z,12.30
2022-10-31T09:57:08.527Z,12.60
2022-10-31T10:02:49.478Z,12.80
2022-10-31T10:08:07.678Z,13.10
2022-10-31T10:13:30.962Z,13.20
2022-10-31T10:18:43.286Z,13.20
2022-10-31T10:23:57.921Z,13.30
2022-10-31T10:29:43.580Z,13.50
2022-10-31T10:35:27.525Z,13.70
2022-10-31T10:40:42.782Z,13.90
2022-10-31T10:46:12.210Z,14.00
2022-10-31T10:51:39.085Z,14.10
2022-10-31T10:56:58.408Z,14.30
2022-10-31T11:02:00.139Z,14.60
2022-10-31T11:07:35.058Z,14.90
2022-10-31T11:13:10.481Z,15.10
2022-10-31T11:18:45.797Z,15.20
2022-10-31T11:29:18.806Z,15.50
2022-10-31T11:39:43.740Z,15.70
2022-10-31T11:45:10.616Z,15.90
2022-10-31T12:02:09.704Z,16.80
2022-10-31T12:24:19.410Z,16.90
2022-10-31T13:29:37.075Z,17.00
2022-10-31T14:13:34.992Z,16.60
2022-10-31T14:41:07.624Z,17.00
2022-10-31T14:46:53.980Z,17.20
2022-10-31T14:58:41.304Z,17.60
2022-10-31T15:04:24.222Z,17.20
2022-10-31T15:21:42.907Z,15.90
2022-10-31T15:33:48.360Z,14.90
2022-10-31T15:39:39.408Z,14.60
2022-10-31T15:51:04.042Z,14.70
2022-10-31T15:56:08.740Z,14.70
2022-10-31T16:25:42.429Z,14.70
2022-10-31T16:58:32.169Z,14.50
2022-10-31T17:03:34.124Z,14.60
2022-10-31T17:08:35.866Z,14.30
2022-10-31T17:13:39.357Z,14.10
2022-10-31T17:18:41.473Z,13.90
2022-10-31T17:23:43.209Z,13.60
2022-10-31T17:28:46.383Z,13.60
2022-10-31T17:33:48.086Z,13.40
2022-10-31T17:38:49.877Z,13.20
2022-10-31T17:43:56.185Z,13.10
2022-10-31T17:48:58.179Z,12.70
2022-10-31T17:53:59.931Z,12.60
2022-10-31T17:59:13.522Z,12.40
2022-10-31T18:04:21.370Z,11.90
2022-10-31T18:09:23.264Z,11.80
2022-10-31T18:14:31.143Z,11.70
2022-10-31T18:19:33.298Z,11.70
2022-10-31T18:24:35.192Z,11.60
2022-10-31T18:29:38.366Z,11.50
2022-10-31T18:34:40.103Z,11.30
2022-10-31T18:39:41.906Z,11.00
2022-10-31T18:44:45.218Z,11.10
2022-10-31T18:49:46.961Z,11.00
2022-10-31T18:54:48.799Z,11.00
2022-10-31T18:59:51.991Z,11.00
2022-10-31T19:04:53.751Z,11.10
2022-10-31T19:09:55.463Z,11.00
2022-10-31T19:14:58.573Z,11.00
2022-10-31T19:20:03.153Z,11.20
2022-10-31T19:25:07.641Z,11.20
2022-10-31T19:30:14.824Z,11.20
2022-10-31T19:35:16.631Z,11.00
2022-10-31T19:41:05.378Z,10.70
2022-10-31T19:46:22.036Z,10.50
2022-10-31T19:51:29.881Z,10.40
2022-10-31T19:56:31.736Z,10.30
2022-10-31T20:01:34.970Z,10.40
2022-10-31T20:06:42.895Z,10.40
2022-10-31T20:17:27.626Z,10.10
2022-10-31T20:22:32.728Z,10.00
2022-10-31T20:33:02.464Z,10.00
2022-10-31T20:38:04.995Z,10.10
2022-10-31T20:43:06.916Z,10.10
2022-10-31T20:48:12.317Z,10.80
2022-10-31T20:53:14.006Z,10.90
2022-10-31T20:58:16.078Z,10.90
2022-10-31T21:03:19.538Z,10.90
2022-10-31T21:08:21.530Z,10.80
2022-10-31T21:13:23.803Z,10.90
2022-10-31T21:18:29.198Z,10.80
2022-10-31T21:23:31.072Z,10.80
2022-10-31T21:28:32.945Z,10.70
2022-10-31T21:33:44.866Z,10.70
2022-10-31T21:38:49.937Z,10.60
2022-10-31T21:43:53.117Z,10.20
2022-10-31T21:48:56.913Z,9.90
2022-10-31T21:53:59.061Z,10.00
2022-10-31T21:59:00.914Z,9.70
2022-10-31T22:04:04.852Z,9.60
2022-10-31T22:09:08.015Z,9.40
2022-10-31T22:14:13.008Z,9.40
2022-10-31T22:19:16.282Z,9.40
2022-10-31T22:24:18.718Z,9.40
2022-10-31T22:29:21.058Z,9.40
2022-10-31T22:34:24.226Z,9.30
2022-10-31T22:39:26.006Z,9.10
2022-10-31T22:44:27.862Z,9.10
2022-10-31T22:49:30.992Z,9.20
2022-10-31T22:54:32.711Z,9.20
2022-10-31T22:59:34.466Z,9.20
2022-10-31T23:04:37.566Z,9.30
2022-10-31T23:09:39.354Z,9.40
2022-10-31T23:14:41.119Z,9.40
2022-10-31T23:19:48.568Z,9.40
2022-10-31T23:24:50.388Z,9.50
2022-10-31T23:29:53.511Z,9.50
2022-10-31T23:34:58.028Z,9.60
2022-10-31T23:40:00.208Z,9.50
2022-10-31T23:45:01.980Z,9.60
2022-10-31T23:50:05.827Z,9.60
2022-10-31T23:55:07.976Z,9.60
